Time;durP1;ratioP1;P1;durP2;ratioP2;P2;SDS_P1;SDS_P2;PMS_P1;PMS_P2;Temp;Humidity;BMP_temperature;BMP_pressure;BME280_temperature;BME280_humidity;BME280_pressure;Samples;Min_cycle;Max_cycle;Signal;HPM_P1;HPM_P2
2021/04/08 00:01:32;;;;;;;11.73;1.40;;;2.10;96.00;;;;;;10476458;28;20093;-68
2021/04/08 00:06:33;;;;;;;6.22;1.38;;;2.10;96.30;;;;;;10477784;28;20098;-68
2021/04/08 00:11:34;;;;;;;15.03;1.70;;;2.20;96.30;;;;;;10475257;28;20071;-68
2021/04/08 00:16:36;;;;;;;31.27;3.30;;;2.30;96.30;;;;;;10476176;28;20483;-68
2021/04/08 00:21:38;;;;;;;4.73;1.83;;;2.40;96.30;;;;;;10475260;28;20048;-68
2021/04/08 00:26:39;;;;;;;5.43;1.93;;;4.30;95.10;;;;;;10473555;28;20044;-68
2021/04/08 00:31:42;;;;;;;6.85;1.10;;;2.80;92.70;;;;;;10469282;28;20048;-68
2021/04/08 00:36:43;;;;;;;5.57;0.85;;;2.80;91.90;;;;;;10467041;28;20147;-68
2021/04/08 00:41:44;;;;;;;4.35;1.15;;;2.70;91.30;;;;;;10469657;28;20044;-68
2021/04/08 00:46:47;;;;;;;7.80;1.40;;;2.50;90.60;;;;;;10475381;28;20049;-68
2021/04/08 00:51:48;;;;;;;1.57;1.17;;;2.30;90.40;;;;;;10473582;28;20131;-68
2021/04/08 00:56:50;;;;;;;6.75;1.65;;;2.30;90.50;;;;;;10474758;28;20056;-68
2021/04/08 01:01:52;;;;;;;4.25;1.20;;;2.30;90.20;;;;;;10474757;28;20045;-68
2021/04/08 01:06:55;;;;;;;1.60;1.00;;;4.10;90.60;;;;;;10469556;28;20159;-68
2021/04/08 01:11:56;;;;;;;2.15;1.10;;;2.50;89.20;;;;;;10468444;28;20048;-67
2021/04/08 01:17:03;;;;;;;5.88;1.38;;;2.80;87.10;;;;;;10472242;28;20443;-68
2021/04/08 01:22:12;;;;;;;3.33;1.13;;;2.80;85.00;;;;;;10471516;28;20495;-68
2021/04/08 01:27:54;;;;;;;6.53;0.90;;;2.70;83.60;;;;;;10473925;28;20131;-68
2021/04/08 01:33:00;;;;;;;6.55;1.65;;;2.50;83.80;;;;;;10468530;28;20036;-69
2021/04/08 01:38:08;;;;;;;3.30;1.08;;;2.50;85.60;;;;;;10477562;28;20526;-68
2021/04/08 01:43:10;;;;;;;3.97;1.10;;;2.60;86.20;;;;;;10482120;28;20044;-68
2021/04/08 01:48:13;;;;;;;5.57;1.20;;;2.90;85.00;;;;;;10481577;28;20127;-68
2021/04/08 01:53:15;;;;;;;5.90;1.27;;;3.00;84.40;;;;;;10484117;28;20062;-68
2021/04/08 01:58:19;;;;;;;3.92;1.23;;;3.10;84.00;;;;;;10483725;28;20126;-68
2021/04/08 02:03:23;;;;;;;5.72;1.17;;;3.10;82.80;;;;;;10482995;28;20126;-69
2021/04/08 02:08:26;;;;;;;5.43;1.38;;;3.10;82.10;;;;;;10482053;28;20076;-68
2021/04/08 02:13:28;;;;;;;3.75;1.35;;;3.10;81.70;;;;;;10481757;28;20068;-68
2021/04/08 02:18:30;;;;;;;6.07;1.50;;;2.80;83.70;;;;;;10482554;28;20468;-68
2021/04/08 02:23:36;;;;;;;3.37;1.03;;;2.80;84.80;;;;;;10482017;28;20046;-68
2021/04/08 02:28:39;;;;;;;9.55;1.88;;;2.80;85.10;;;;;;10481891;28;20901;-69
2021/04/08 02:33:41;;;;;;;5.65;1.80;;;2.80;85.30;;;;;;10483117;28;20043;-69
2021/04/08 02:38:43;;;;;;;6.30;1.58;;;2.90;85.00;;;;;;10481137;28;20144;-69
2021/04/08 02:43:45;;;;;;;9.45;1.38;;;2.80;85.00;;;;;;10481165;28;20460;-69
2021/04/08 02:48:47;;;;;;;7.05;1.60;;;2.80;84.50;;;;;;10480808;28;20134;-70
2021/04/08 02:53:55;;;;;;;5.80;1.52;;;2.80;83.30;;;;;;10482180;28;20602;-69
2021/04/08 02:59:03;;;;;;;5.90;1.83;;;2.70;83.90;;;;;;10482041;28;20159;-70
2021/04/08 03:04:06;;;;;;;4.75;1.50;;;2.70;83.80;;;;;;10480031;28;20155;-69
2021/04/08 03:09:09;;;;;;;13.07;3.13;;;2.70;82.90;;;;;;10479857;28;20053;-69
2021/04/08 03:14:12;;;;;;;4.35;1.95;;;2.60;83.60;;;;;;10479802;28;20082;-69
2021/04/08 03:19:23;;;;;;;9.00;2.25;;;2.60;83.00;;;;;;10479873;28;20173;-69
2021/04/08 03:24:25;;;;;;;7.47;2.05;;;2.70;83.10;;;;;;10479721;28;20403;-69
2021/04/08 03:29:28;;;;;;;6.10;1.90;;;2.60;84.00;;;;;;10480687;28;20135;-69
2021/04/08 03:34:32;;;;;;;7.88;1.33;;;2.60;83.30;;;;;;10477521;28;20055;-69
2021/04/08 03:39:34;;;;;;;4.07;1.70;;;2.60;83.20;;;;;;10474840;28;20070;-69
2021/04/08 03:44:35;;;;;;;4.37;2.57;;;2.60;83.20;;;;;;10476306;28;20040;-68
2021/04/08 03:49:38;;;;;;;7.45;2.42;;;2.70;82.60;;;;;;10476241;28;20044;-69
2021/04/08 03:54:42;;;;;;;5.70;2.63;;;2.50;83.60;;;;;;10478680;28;20144;-69
2021/04/08 03:59:44;;;;;;;7.20;3.20;;;2.50;83.80;;;;;;10478079;28;20135;-69
2021/04/08 04:04:47;;;;;;;6.03;2.80;;;2.40;84.00;;;;;;10479612;28;20048;-69
2021/04/08 04:09:49;;;;;;;8.82;2.78;;;2.20;84.60;;;;;;10478511;28;20485;-69
2021/04/08 04:14:51;;;;;;;5.63;2.63;;;2.00;85.20;;;;;;10477151;28;20499;-69
2021/04/08 04:19:53;;;;;;;6.17;3.00;;;1.90;86.10;;;;;;10477724;28;20734;-69
2021/04/08 04:24:54;;;;;;;5.93;3.03;;;1.70;87.20;;;;;;10476746;28;20131;-69
2021/04/08 04:29:55;;;;;;;9.43;2.90;;;1.70;87.40;;;;;;10473041;28;20046;-69
2021/04/08 04:34:58;;;;;;;4.85;2.60;;;1.60;87.80;;;;;;10474629;28;20055;-68
2021/04/08 04:39:59;;;;;;;4.87;2.97;;;1.50;88.70;;;;;;10473804;28;20135;-69
2021/04/08 04:45:00;;;;;;;4.53;3.00;;;1.60;89.10;;;;;;10474505;28;20574;-69
2021/04/08 04:50:03;;;;;;;7.87;3.50;;;1.80;89.50;;;;;;10474692;28;20071;-69
2021/04/08 04:55:05;;;;;;;10.43;3.25;;;2.00;88.60;;;;;;10474865;28;20199;-69
2021/04/08 05:00:08;;;;;;;3.80;2.93;;;2.00;88.60;;;;;;10463990;28;20135;-67
2021/04/08 05:05:12;;;;;;;8.20;3.20;;;1.80;88.90;;;;;;10472940;28;20071;-66
2021/04/08 05:10:13;;;;;;;6.13;3.97;;;1.90;89.10;;;;;;10473687;28;20044;-66
2021/04/08 05:15:16;;;;;;;5.93;3.50;;;2.10;88.90;;;;;;10474617;28;21073;-66
2021/04/08 05:20:18;;;;;;;6.53;2.97;;;2.30;88.10;;;;;;10475287;28;20056;-66
2021/04/08 05:25:19;;;;;;;6.40;2.75;;;2.50;88.00;;;;;;10470528;28;20858;-67
2021/04/08 05:30:21;;;;;;;4.15;2.40;;;2.80;87.50;;;;;;10470138;28;20052;-66
2021/04/08 05:35:23;;;;;;;4.07;2.80;;;3.10;86.60;;;;;;10467752;28;20057;-66
2021/04/08 05:40:25;;;;;;;5.07;3.17;;;3.30;85.90;;;;;;10471973;28;20127;-67
2021/04/08 05:45:27;;;;;;;3.05;2.25;;;3.70;84.90;;;;;;10467921;28;20474;-66
2021/04/08 05:50:32;;;;;;;5.18;2.65;;;3.80;83.40;;;;;;10469203;28;20045;-66
2021/04/08 05:55:34;;;;;;;4.88;2.65;;;3.80;83.10;;;;;;10458533;28;20049;-66
2021/04/08 06:00:35;;;;;;;5.25;2.70;;;3.90;81.60;;;;;;10467629;28;20460;-66
2021/04/08 06:05:38;;;;;;;7.63;3.05;;;4.00;81.30;;;;;;10463490;28;20095;-66
2021/04/08 06:10:39;;;;;;;5.15;3.13;;;4.10;80.00;;;;;;10447566;28;20059;-65
2021/04/08 06:15:41;;;;;;;5.30;2.55;;;4.20;79.60;;;;;;10458035;28;20117;-65
2021/04/08 06:20:43;;;;;;;10.77;3.17;;;4.30;79.80;;;;;;10466123;28;20124;-67
2021/04/08 06:25:44;;;;;;;7.55;2.55;;;4.30;78.40;;;;;;10477478;28;20396;-65
2021/04/08 06:30:46;;;;;;;5.25;2.92;;;4.40;77.80;;;;;;10479719;28;20049;-66
2021/04/08 06:35:48;;;;;;;4.38;2.50;;;4.50;76.40;;;;;;10475109;28;20048;-65
2021/04/08 06:40:50;;;;;;;7.60;2.78;;;4.70;77.10;;;;;;10477301;28;20041;-66
2021/04/08 06:45:55;;;;;;;8.70;3.72;;;4.90;75.70;;;;;;10474106;28;20040;-65
2021/04/08 06:50:58;;;;;;;7.45;3.58;;;5.20;73.40;;;;;;10476314;28;20033;-65
2021/04/08 06:56:00;;;;;;;12.63;4.00;;;5.40;72.20;;;;;;10477672;28;20039;-66
2021/04/08 07:01:01;;;;;;;5.40;3.30;;;5.60;70.90;;;;;;10479984;28;20132;-65
2021/04/08 07:06:04;;;;;;;5.28;3.15;;;5.70;68.00;;;;;;10479212;28;20424;-65
2021/04/08 07:11:06;;;;;;;7.57;2.30;;;5.80;67.80;;;;;;10478096;28;20488;-66
2021/04/08 07:16:09;;;;;;;4.95;2.53;;;5.90;65.40;;;;;;10479162;28;20471;-65
2021/04/08 07:21:11;;;;;;;5.20;2.33;;;6.00;65.80;;;;;;10476866;28;20036;-65
2021/04/08 07:26:14;;;;;;;4.00;2.65;;;6.10;65.00;;;;;;10476263;28;20040;-65
2021/04/08 07:31:22;;;;;;;3.22;2.42;;;6.10;64.50;;;;;;10472385;28;20061;-65
2021/04/08 07:36:29;;;;;;;4.43;2.92;;;6.20;66.10;;;;;;10467970;28;20068;-65
2021/04/08 07:41:33;;;;;;;4.53;2.65;;;6.20;65.70;;;;;;10474747;28;20071;-65
2021/04/08 07:46:39;;;;;;;7.20;2.95;;;6.30;67.50;;;;;;10477331;28;20040;-66
2021/04/08 07:51:41;;;;;;;9.43;3.35;;;6.40;72.50;;;;;;10474802;28;20476;-65
2021/04/08 07:56:43;;;;;;;11.65;3.42;;;6.40;68.60;;;;;;10472497;28;20064;-65
2021/04/08 08:01:46;;;;;;;11.05;3.78;;;6.40;67.30;;;;;;10475096;28;20043;-66
2021/04/08 08:06:49;;;;;;;6.68;3.28;;;6.70;67.20;;;;;;10473799;28;20071;-65
2021/04/08 08:11:51;;;;;;;8.55;3.53;;;7.10;66.40;;;;;;10475121;28;20079;-65
2021/04/08 08:17:03;;;;;;;11.90;4.25;;;7.50;65.30;;;;;;10474182;28;20143;-65
2021/04/08 08:22:05;;;;;;;13.98;4.20;;;8.20;64.50;;;;;;10473982;28;20139;-65
2021/04/08 08:27:06;;;;;;;9.53;3.83;;;8.50;63.20;;;;;;10471182;28;20526;-65
2021/04/08 08:32:10;;;;;;;9.27;4.13;;;8.50;62.90;;;;;;10471574;28;20050;-65
2021/04/08 08:37:13;;;;;;;7.43;3.70;;;8.50;63.70;;;;;;10470900;28;20135;-65
2021/04/08 08:42:17;;;;;;;7.57;3.88;;;8.30;64.60;;;;;;10473352;28;20079;-65
2021/04/08 08:47:23;;;;;;;9.48;4.05;;;8.00;64.00;;;;;;10470295;28;20045;-65
2021/04/08 08:52:27;;;;;;;8.38;4.10;;;7.80;65.10;;;;;;10472274;28;20127;-64
2021/04/08 08:57:29;;;;;;;12.80;4.05;;;7.50;70.80;;;;;;10471388;28;20087;-64
2021/04/08 09:02:31;;;;;;;11.50;3.90;;;7.40;66.70;;;;;;10472218;28;20114;-66
2021/04/08 09:07:33;;;;;;;8.23;4.05;;;7.70;66.40;;;;;;10472904;28;20060;-66
2021/04/08 09:12:35;;;;;;;8.43;4.07;;;7.90;66.10;;;;;;10471986;28;20117;-66
2021/04/08 09:17:43;;;;;;;4.85;3.67;;;8.20;65.60;;;;;;10473110;28;20045;-66
2021/04/08 09:22:53;;;;;;;8.77;3.97;;;8.50;64.60;;;;;;10474537;28;20128;-66
2021/04/08 09:27:57;;;;;;;4.63;2.60;;;9.00;61.30;;;;;;10469800;28;20098;-63
2021/04/08 09:32:59;;;;;;;2.65;2.03;;;9.70;58.00;;;;;;10469889;28;20519;-65
2021/04/08 09:38:28;;;;;;;3.85;2.30;;;10.40;54.50;;;;;;10473950;28;20416;-64
2021/04/08 09:43:31;;;;;;;3.60;2.08;;;11.30;52.20;;;;;;10475078;28;20044;-63
2021/04/08 09:48:47;;;;;;;4.45;2.20;;;12.00;50.00;;;;;;10470880;28;20139;-63
2021/04/08 09:54:05;;;;;;;4.45;2.20;;;11.20;48.90;;;;;;10470042;28;20072;-63
2021/04/08 09:59:07;;;;;;;12.63;2.70;;;12.10;47.90;;;;;;10472924;28;20052;-63
2021/04/08 10:04:17;;;;;;;6.00;3.17;;;12.60;44.80;;;;;;10475704;28;20159;-63
2021/04/08 10:09:19;;;;;;;5.05;2.90;;;12.70;45.30;;;;;;10475735;28;20048;-62
2021/04/08 10:14:25;;;;;;;3.67;2.23;;;12.20;44.10;;;;;;10476305;28;20055;-66
2021/04/08 10:19:34;;;;;;;3.08;1.75;;;14.30;41.10;;;;;;10475535;28;20068;-66
2021/04/08 10:24:38;;;;;;;6.50;2.00;;;16.30;38.40;;;;;;10476786;28;20082;-65
2021/04/08 10:29:40;;;;;;;5.32;1.80;;;16.70;35.90;;;;;;10474073;28;20040;-65
2021/04/08 10:34:42;;;;;;;3.10;1.67;;;17.10;35.90;;;;;;10473611;28;21927;-64
2021/04/08 10:39:44;;;;;;;3.65;1.80;;;17.00;34.00;;;;;;10473102;28;20047;-64
2021/04/08 10:44:47;;;;;;;1.60;1.20;;;17.80;33.50;;;;;;10473689;28;20048;-66
2021/04/08 10:49:50;;;;;;;2.70;1.48;;;18.30;31.30;;;;;;10474726;28;20049;-63
2021/04/08 10:54:54;;;;;;;3.40;1.63;;;18.50;31.30;;;;;;10478825;28;20140;-64
2021/04/08 10:59:56;;;;;;;5.60;1.42;;;19.70;30.20;;;;;;10478972;28;20043;-65
2021/04/08 11:05:01;;;;;;;;;;;18.50;30.00;;;;;;10479913;28;20049;-64
2021/04/08 11:10:08;;;;;;;5.15;1.65;;;18.90;30.70;;;;;;10477118;28;19962;-65
2021/04/08 11:15:11;;;;;;;5.22;1.80;;;18.30;30.00;;;;;;10476802;28;20044;-64
2021/04/08 11:20:14;;;;;;;4.55;1.60;;;18.20;30.20;;;;;;10475958;28;20558;-66
2021/04/08 11:25:17;;;;;;;1.63;1.02;;;18.90;30.00;;;;;;10477658;28;20043;-65
2021/04/08 11:30:21;;;;;;;2.85;0.82;;;18.10;30.00;;;;;;10476534;28;20914;-65
2021/04/08 11:35:30;;;;;;;2.92;1.10;;;17.90;29.10;;;;;;10475845;28;20043;-65
2021/04/08 11:40:32;;;;;;;1.45;1.10;;;17.30;30.10;;;;;;10476307;28;20071;-66
2021/04/08 11:45:34;;;;;;;2.45;1.25;;;17.40;30.10;;;;;;10477194;28;20575;-65
2021/04/08 11:50:38;;;;;;;5.28;1.30;;;17.10;30.00;;;;;;10476995;28;20040;-64
2021/04/08 11:55:43;;;;;;;2.58;1.00;;;16.70;29.70;;;;;;10477164;28;20049;-65
2021/04/08 12:00:44;;;;;;;4.18;1.33;;;16.90;31.00;;;;;;10476688;28;20186;-65
2021/04/08 12:05:46;;;;;;;2.47;0.97;;;17.00;30.00;;;;;;10476360;28;20561;-64
2021/04/08 12:10:57;;;;;;;4.25;1.20;;;17.00;30.30;;;;;;10475432;28;20091;-62
2021/04/08 12:15:58;;;;;;;3.60;1.20;;;16.80;31.00;;;;;;10475940;28;20493;-62
2021/04/08 12:21:10;;;;;;;2.25;0.90;;;16.70;31.50;;;;;;10474651;28;20493;-62
2021/04/08 12:26:13;;;;;;;;;;;16.60;31.10;;;;;;10476740;28;20482;-62
2021/04/08 12:31:14;;;;;;;7.03;1.00;;;15.90;30.70;;;;;;10472985;28;19974;-62
2021/04/08 12:36:16;;;;;;;14.60;1.50;;;17.00;31.40;;;;;;10473613;28;20135;-62
2021/04/08 12:41:18;;;;;;;9.90;1.13;;;17.30;30.00;;;;;;10475342;28;20059;-63
2021/04/08 12:46:20;;;;;;;2.30;0.77;;;17.00;30.30;;;;;;10473764;28;20091;-63
2021/04/08 12:51:21;;;;;;;3.53;1.10;;;16.90;30.30;;;;;;10473551;28;20494;-64
2021/04/08 12:56:24;;;;;;;1.57;0.87;;;16.60;31.20;;;;;;10473483;28;20476;-63
2021/04/08 13:01:27;;;;;;;6.25;1.55;;;16.10;31.20;;;;;;10468728;28;20043;-63
2021/04/08 13:06:28;;;;;;;1.42;0.88;;;16.10;31.80;;;;;;10471039;28;20040;-63
2021/04/08 13:11:30;;;;;;;2.22;1.10;;;16.10;31.90;;;;;;10473424;28;20047;-63
2021/04/08 13:16:34;;;;;;;4.75;1.05;;;15.90;31.60;;;;;;10466311;28;20041;-64
2021/04/08 13:21:35;;;;;;;3.85;2.03;;;15.60;31.70;;;;;;10471997;28;20140;-65
2021/04/08 13:26:37;;;;;;;3.20;1.10;;;15.40;31.80;;;;;;10469583;28;20083;-64
2021/04/08 13:31:38;;;;;;;4.32;0.93;;;15.10;32.80;;;;;;10477620;28;20100;-64
2021/04/08 13:36:40;;;;;;;6.53;1.40;;;14.60;32.60;;;;;;10485788;28;20158;-64
2021/04/08 13:41:42;;;;;;;4.30;1.02;;;15.20;34.50;;;;;;10486547;28;20048;-62
2021/04/08 13:46:44;;;;;;;5.93;0.80;;;14.40;34.20;;;;;;10486512;28;20332;-63
2021/04/08 13:51:45;;;;;;;2.03;1.10;;;14.00;34.80;;;;;;10487933;28;20159;-64
2021/04/08 13:56:47;;;;;;;1.60;0.93;;;13.50;36.70;;;;;;10486081;28;20156;-66
2021/04/08 14:01:49;;;;;;;4.63;1.15;;;13.20;37.60;;;;;;10482396;28;20469;-66
2021/04/08 14:06:50;;;;;;;5.20;1.30;;;13.60;36.90;;;;;;10484133;28;20151;-65
2021/04/08 14:11:52;;;;;;;2.78;0.88;;;14.00;35.80;;;;;;10486799;28;20051;-65
2021/04/08 14:16:54;;;;;;;10.82;1.30;;;14.70;34.80;;;;;;10483925;28;20143;-66
2021/04/08 14:21:56;;;;;;;3.15;1.00;;;15.10;34.90;;;;;;10484230;28;20052;-64
2021/04/08 14:26:58;;;;;;;4.65;1.20;;;14.70;34.20;;;;;;10485664;28;20139;-63
2021/04/08 14:32:00;;;;;;;7.13;1.13;;;14.20;35.00;;;;;;10487028;28;20745;-63
2021/04/08 14:37:01;;;;;;;5.63;1.20;;;13.90;34.80;;;;;;10484394;28;20140;-60
2021/04/08 14:42:04;;;;;;;2.25;0.90;;;13.90;35.60;;;;;;10485860;28;20047;-63
2021/04/08 14:47:05;;;;;;;1.60;0.88;;;14.20;34.80;;;;;;10478802;28;20098;-64
2021/04/08 14:52:07;;;;;;;4.05;1.50;;;14.30;34.30;;;;;;10477499;28;20052;-63
2021/04/08 14:57:09;;;;;;;3.60;1.52;;;13.90;35.60;;;;;;10478024;28;20110;-65
2021/04/08 15:02:11;;;;;;;2.38;1.92;;;13.80;35.50;;;;;;10474892;28;20127;-65
2021/04/08 15:07:12;;;;;;;5.47;2.35;;;13.70;35.60;;;;;;10476465;28;20044;-65
2021/04/08 15:12:15;;;;;;;4.53;2.33;;;13.40;35.80;;;;;;10475448;28;20052;-64
2021/04/08 15:17:16;;;;;;;3.78;2.33;;;13.30;36.30;;;;;;10473202;28;20123;-63
2021/04/08 15:22:18;;;;;;;4.25;2.15;;;13.30;36.20;;;;;;10475192;28;20139;-64
2021/04/08 15:27:20;;;;;;;2.85;1.70;;;13.10;36.60;;;;;;10475321;28;20106;-65
2021/04/08 15:32:21;;;;;;;6.68;1.98;;;12.70;37.20;;;;;;10476114;28;20435;-65
2021/04/08 15:37:24;;;;;;;6.78;1.98;;;12.30;38.10;;;;;;10468670;28;20135;-65
2021/04/08 15:42:27;;;;;;;4.43;1.60;;;12.20;38.80;;;;;;10473756;28;20127;-65
2021/04/08 15:47:29;;;;;;;5.20;2.60;;;12.30;39.00;;;;;;10474362;28;20056;-65
2021/04/08 15:52:30;;;;;;;3.40;1.70;;;12.60;38.50;;;;;;10472994;28;20079;-65
2021/04/08 15:57:33;;;;;;;10.60;2.72;;;13.00;38.10;;;;;;10474502;28;20040;-65
2021/04/08 16:02:35;;;;;;;8.57;1.63;;;13.20;38.50;;;;;;10476008;28;20053;-63
2021/04/08 16:07:36;;;;;;;3.88;2.25;;;13.20;39.40;;;;;;10471755;28;20466;-65
2021/04/08 16:12:39;;;;;;;6.05;2.05;;;12.90;40.40;;;;;;10466706;28;20767;-65
2021/04/08 16:17:41;;;;;;;4.13;2.22;;;12.50;41.00;;;;;;10471994;28;20678;-64
2021/04/08 16:22:42;;;;;;;3.87;2.10;;;12.10;42.30;;;;;;10466867;28;20063;-65
2021/04/08 16:27:44;;;;;;;8.45;2.25;;;11.80;42.30;;;;;;10471102;28;20490;-65
2021/04/08 16:32:46;;;;;;;7.17;2.10;;;11.50;43.70;;;;;;10474556;28;20490;-65
2021/04/08 16:37:47;;;;;;;6.70;1.85;;;11.40;45.10;;;;;;10474438;28;20151;-64
2021/04/08 16:42:49;;;;;;;7.85;1.65;;;11.30;46.10;;;;;;10474679;28;20054;-65
2021/04/08 16:47:51;;;;;;;6.83;2.07;;;11.00;47.50;;;;;;10470694;28;20144;-65
2021/04/08 16:52:52;;;;;;;2.75;1.75;;;10.90;47.50;;;;;;10470336;28;20441;-66
2021/04/08 16:57:56;;;;;;;5.50;2.08;;;10.80;48.50;;;;;;10469890;28;20472;-64
2021/04/08 17:02:57;;;;;;;6.28;2.33;;;10.70;49.10;;;;;;10470435;28;20126;-64
2021/04/08 17:07:58;;;;;;;3.95;2.17;;;10.40;50.20;;;;;;10460328;28;20094;-65
2021/04/08 17:13:00;;;;;;;6.10;2.40;;;10.00;52.10;;;;;;10470216;28;20502;-65
2021/04/08 17:18:02;;;;;;;7.17;2.67;;;11.20;55.10;;;;;;10474047;28;20130;-67
2021/04/08 17:23:03;;;;;;;6.05;2.53;;;9.40;55.70;;;;;;10472933;28;20075;-65
2021/04/08 17:28:06;;;;;;;6.68;2.67;;;9.20;57.20;;;;;;10473863;28;20062;-66
2021/04/08 17:33:09;;;;;;;6.60;3.25;;;9.00;57.60;;;;;;10471115;28;20048;-66
2021/04/08 17:38:10;;;;;;;8.60;3.10;;;8.80;58.40;;;;;;10473926;28;20044;-65
2021/04/08 17:43:12;;;;;;;7.32;2.50;;;8.80;59.80;;;;;;10472402;28;20057;-65
2021/04/08 17:48:13;;;;;;;8.90;2.50;;;8.70;60.70;;;;;;10473770;28;20090;-67
2021/04/08 17:53:15;;;;;;;5.88;2.53;;;8.60;61.10;;;;;;10473275;28;20135;-65
2021/04/08 17:58:17;;;;;;;5.97;2.55;;;8.80;63.20;;;;;;10473300;28;20053;-68
2021/04/08 18:03:18;;;;;;;8.43;2.47;;;8.20;64.60;;;;;;10471324;28;20053;-68
2021/04/08 18:08:20;;;;;;;7.63;3.47;;;8.00;65.40;;;;;;10471632;28;20156;-65
2021/04/08 18:13:22;;;;;;;10.48;2.83;;;7.80;66.70;;;;;;10464898;28;20053;-65
2021/04/08 18:18:24;;;;;;;7.23;2.73;;;7.70;68.30;;;;;;10468274;28;20045;-66
2021/04/08 18:23:25;;;;;;;7.32;3.47;;;7.60;69.70;;;;;;10479917;28;20078;-64
2021/04/08 18:28:27;;;;;;;16.60;3.38;;;7.40;70.10;;;;;;10478523;28;20060;-66
2021/04/08 18:33:29;;;;;;;13.13;3.08;;;7.30;71.70;;;;;;10478444;28;20059;-65
2021/04/08 18:38:30;;;;;;;8.02;3.30;;;7.20;72.70;;;;;;10476918;28;20385;-64
2021/04/08 18:43:32;;;;;;;7.82;4.03;;;7.20;73.20;;;;;;10477907;28;20084;-65
2021/04/08 18:48:33;;;;;;;7.40;3.58;;;7.20;74.00;;;;;;10476626;28;20131;-67
2021/04/08 18:53:35;;;;;;;6.40;3.15;;;7.10;74.50;;;;;;10477272;28;20067;-62
2021/04/08 18:58:37;;;;;;;7.63;3.25;;;7.10;74.60;;;;;;10477626;28;20058;-64
2021/04/08 19:03:38;;;;;;;9.23;3.60;;;7.00;75.20;;;;;;10477247;28;20048;-65
2021/04/08 19:08:40;;;;;;;9.15;3.00;;;6.90;75.90;;;;;;10478061;28;20503;-67
2021/04/08 19:13:42;;;;;;;7.32;3.33;;;6.80;77.60;;;;;;10476330;28;20048;-66
2021/04/08 19:18:43;;;;;;;7.72;3.95;;;6.70;78.60;;;;;;10475451;28;20159;-67
2021/04/08 19:23:45;;;;;;;12.07;2.90;;;6.70;79.60;;;;;;10476657;28;20054;-67
2021/04/08 19:28:47;;;;;;;14.57;2.90;;;6.70;80.40;;;;;;10475729;28;20607;-66
2021/04/08 19:33:49;;;;;;;14.43;3.60;;;6.70;81.10;;;;;;10476680;28;20048;-68
2021/04/08 19:38:52;;;;;;;10.05;2.88;;;6.60;82.40;;;;;;10476040;28;20046;-67
2021/04/08 19:43:54;;;;;;;7.72;3.80;;;6.50;82.70;;;;;;10475531;28;20055;-64
2021/04/08 19:48:55;;;;;;;8.15;3.65;;;6.40;83.60;;;;;;10474659;28;20044;-67
2021/04/08 19:53:57;;;;;;;10.20;4.00;;;6.40;84.30;;;;;;10475667;28;20056;-66
2021/04/08 19:58:59;;;;;;;12.15;3.80;;;6.40;85.00;;;;;;10475527;28;20048;-67
2021/04/08 20:04:00;;;;;;;8.55;3.33;;;6.40;85.80;;;;;;10474107;28;20126;-67
2021/04/08 20:09:02;;;;;;;9.30;3.20;;;6.40;85.90;;;;;;10472719;28;20127;-67
2021/04/08 20:14:05;;;;;;;10.27;4.90;;;6.40;86.20;;;;;;10474204;28;20048;-66
2021/04/08 20:19:06;;;;;;;8.50;3.87;;;6.30;86.90;;;;;;10472577;28;20131;-66
2021/04/08 20:24:09;;;;;;;10.27;3.75;;;6.40;87.00;;;;;;10474018;28;20045;-66
2021/04/08 20:29:12;;;;;;;11.82;3.72;;;6.50;86.80;;;;;;10474745;28;20060;-65
2021/04/08 20:34:15;;;;;;;6.80;3.87;;;6.50;86.40;;;;;;10471170;28;20096;-66
2021/04/08 20:39:16;;;;;;;11.77;4.68;;;6.40;86.60;;;;;;10471589;28;20075;-65
2021/04/08 20:44:18;;;;;;;11.38;4.45;;;6.30;87.10;;;;;;10468893;28;20033;-66
2021/04/08 20:49:19;;;;;;;17.55;5.28;;;6.20;88.20;;;;;;10472318;28;20571;-66
2021/04/08 20:54:21;;;;;;;14.15;5.80;;;6.10;89.00;;;;;;10475029;28;20042;-66
2021/04/08 20:59:25;;;;;;;13.27;4.80;;;6.00;89.30;;;;;;10474837;28;20090;-67
2021/04/08 21:04:26;;;;;;;11.70;4.95;;;6.00;89.80;;;;;;10472944;28;20053;-67
2021/04/08 21:09:27;;;;;;;13.10;4.55;;;6.00;90.00;;;;;;10474217;28;20127;-66
2021/04/08 21:14:29;;;;;;;16.20;5.18;;;6.00;90.00;;;;;;10475960;28;20052;-67
2021/04/08 21:19:31;;;;;;;13.32;5.47;;;6.00;90.10;;;;;;10472385;28;20055;-65
2021/04/08 21:24:32;;;;;;;16.13;5.55;;;6.00;90.20;;;;;;10476678;28;20041;-66
2021/04/08 21:29:34;;;;;;;13.57;4.75;;;5.90;90.30;;;;;;10476260;28;20084;-66
2021/04/08 21:34:36;;;;;;;18.13;5.63;;;5.90;90.50;;;;;;10473621;28;20510;-66
2021/04/08 21:39:37;;;;;;;9.93;5.32;;;5.90;91.00;;;;;;10476331;28;20912;-66
2021/04/08 21:44:39;;;;;;;11.68;5.28;;;5.90;90.90;;;;;;10459817;28;20045;-65
2021/04/08 21:49:40;;;;;;;16.85;6.03;;;5.80;90.90;;;;;;10470791;28;20052;-66
2021/04/08 21:54:42;;;;;;;11.43;6.43;;;6.30;91.00;;;;;;10479770;28;20370;-67
2021/04/08 21:59:44;;;;;;;11.68;6.75;;;5.80;91.10;;;;;;10482764;28;20138;-66
2021/04/08 22:04:45;;;;;;;20.27;8.00;;;5.80;91.10;;;;;;10482213;28;20044;-66
2021/04/08 22:09:47;;;;;;;10.70;5.75;;;5.80;91.30;;;;;;10481183;28;20054;-66
2021/04/08 22:14:49;;;;;;;14.30;6.68;;;5.80;91.30;;;;;;10482587;28;20044;-66
2021/04/08 22:19:51;;;;;;;11.43;6.80;;;5.70;91.30;;;;;;10481864;28;20457;-67
2021/04/08 22:24:54;;;;;;;18.58;8.43;;;5.70;91.60;;;;;;10480776;28;20403;-67
2021/04/08 22:29:56;;;;;;;18.67;8.32;;;5.60;91.80;;;;;;10480627;28;20064;-66
2021/04/08 22:34:57;;;;;;;14.52;7.88;;;5.60;92.10;;;;;;10482348;28;20427;-65
2021/04/08 22:39:59;;;;;;;23.08;7.40;;;5.60;92.30;;;;;;10480836;28;20510;-66
2021/04/08 22:45:01;;;;;;;17.88;7.40;;;5.60;92.20;;;;;;10481299;28;20040;-66
2021/04/08 22:50:03;;;;;;;13.80;7.47;;;5.60;92.20;;;;;;10479605;28;20115;-66
2021/04/08 22:55:05;;;;;;;17.30;8.02;;;5.60;92.40;;;;;;10480741;28;20047;-66
2021/04/08 23:00:11;;;;;;;22.83;8.37;;;5.60;92.30;;;;;;10475649;28;20055;-66
2021/04/08 23:05:13;;;;;;;14.88;9.07;;;5.60;92.10;;;;;;10475729;28;20589;-66
2021/04/08 23:10:17;;;;;;;16.35;8.80;;;5.60;92.10;;;;;;10474469;28;20037;-67
2021/04/08 23:15:19;;;;;;;22.20;8.65;;;5.50;92.30;;;;;;10473450;28;20662;-67
2021/04/08 23:20:22;;;;;;;16.35;8.50;;;5.40;92.40;;;;;;10473519;28;20135;-66
2021/04/08 23:25:23;;;;;;;16.88;8.57;;;6.90;92.70;;;;;;10478051;28;20047;-65
2021/04/08 23:30:26;;;;;;;15.45;8.35;;;5.50;92.20;;;;;;10476942;28;20535;-64
2021/04/08 23:35:27;;;;;;;19.42;9.10;;;5.50;91.80;;;;;;10477431;28;20075;-65
2021/04/08 23:40:29;;;;;;;14.15;8.20;;;5.50;91.60;;;;;;10476475;28;20076;-66
2021/04/08 23:45:31;;;;;;;18.25;9.25;;;5.40;91.60;;;;;;10476380;28;20071;-64
2021/04/08 23:50:33;;;;;;;19.35;8.07;;;5.40;91.70;;;;;;10477217;28;20052;-63
2021/04/08 23:55:34;;;;;;;24.20;9.70;;;5.40;91.80;;;;;;10477148;28;20381;-66
